sensor_id;sensor_type;location;lat;lon;timestamp;pressure;altitude;pressure_sealevel;temperature;humidity
51261;BME280;61705;46.228;24.812;2023-03-22T00:00:20;97313.53;;;5.63;84.64
51261;BME280;61705;46.228;24.812;2023-03-22T00:02:49;97316.50;;;5.53;85.68
51261;BME280;61705;46.228;24.812;2023-03-22T00:05:16;97314.81;;;5.50;85.98
51261;BME280;61705;46.228;24.812;2023-03-22T00:07:43;97320.72;;;5.57;86.09
51261;BME280;61705;46.228;24.812;2023-03-22T00:10:12;97311.50;;;5.45;86.65
51261;BME280;61705;46.228;24.812;2023-03-22T00:12:41;97307.34;;;5.38;86.16
51261;BME280;61705;46.228;24.812;2023-03-22T00:15:08;97314.63;;;5.28;86.50
51261;BME280;61705;46.228;24.812;2023-03-22T00:17:36;97316.63;;;5.20;86.53
51261;BME280;61705;46.228;24.812;2023-03-22T00:20:03;97314.88;;;5.20;86.14
51261;BME280;61705;46.228;24.812;2023-03-22T00:22:31;97308.97;;;5.12;86.54
51261;BME280;61705;46.228;24.812;2023-03-22T00:24:58;97321.59;;;4.99;86.66
51261;BME280;61705;46.228;24.812;2023-03-22T00:27:24;97314.91;;;4.89;86.69
51261;BME280;61705;46.228;24.812;2023-03-22T00:29:51;97315.63;;;4.94;86.82
51261;BME280;61705;46.228;24.812;2023-03-22T00:32:18;97321.13;;;4.85;86.80
51261;BME280;61705;46.228;24.812;2023-03-22T00:34:47;97320.63;;;4.72;87.79
51261;BME280;61705;46.228;24.812;2023-03-22T00:37:14;97321.72;;;4.64;88.47
51261;BME280;61705;46.228;24.812;2023-03-22T00:39:47;97318.34;;;4.60;88.95
51261;BME280;61705;46.228;24.812;2023-03-22T00:42:16;97323.91;;;4.48;89.32
51261;BME280;61705;46.228;24.812;2023-03-22T00:44:45;97312.53;;;4.49;89.32
51261;BME280;61705;46.228;24.812;2023-03-22T00:47:12;97315.16;;;4.49;89.29
51261;BME280;61705;46.228;24.812;2023-03-22T00:49:39;97317.09;;;4.42;89.69
51261;BME280;61705;46.228;24.812;2023-03-22T00:52:06;97317.56;;;4.57;88.84
51261;BME280;61705;46.228;24.812;2023-03-22T00:54:36;97317.53;;;4.58;88.90
51261;BME280;61705;46.228;24.812;2023-03-22T00:57:02;97312.94;;;4.66;87.93
51261;BME280;61705;46.228;24.812;2023-03-22T00:59:29;97316.25;;;4.73;87.21
51261;BME280;61705;46.228;24.812;2023-03-22T01:01:56;97314.31;;;4.80;86.78
51261;BME280;61705;46.228;24.812;2023-03-22T01:04:24;97310.75;;;4.82;86.45
51261;BME280;61705;46.228;24.812;2023-03-22T01:06:54;97304.88;;;4.74;86.60
51261;BME280;61705;46.228;24.812;2023-03-22T01:09:30;97315.69;;;4.62;87.19
51261;BME280;61705;46.228;24.812;2023-03-22T01:12:01;97308.09;;;4.53;87.89
51261;BME280;61705;46.228;24.812;2023-03-22T01:14:28;97312.56;;;4.47;87.71
51261;BME280;61705;46.228;24.812;2023-03-22T01:16:57;97312.06;;;4.35;87.48
51261;BME280;61705;46.228;24.812;2023-03-22T01:19:23;97310.31;;;4.35;87.54
51261;BME280;61705;46.228;24.812;2023-03-22T01:21:56;97306.78;;;4.36;87.82
51261;BME280;61705;46.228;24.812;2023-03-22T01:24:28;97297.88;;;4.43;87.32
51261;BME280;61705;46.228;24.812;2023-03-22T01:26:57;97299.63;;;4.43;87.43
51261;BME280;61705;46.228;24.812;2023-03-22T01:29:24;97298.00;;;4.39;88.27
51261;BME280;61705;46.228;24.812;2023-03-22T01:31:51;97305.00;;;4.37;88.14
51261;BME280;61705;46.228;24.812;2023-03-22T01:34:18;97302.31;;;4.40;87.99
51261;BME280;61705;46.228;24.812;2023-03-22T01:36:47;97300.84;;;4.30;88.65
51261;BME280;61705;46.228;24.812;2023-03-22T01:39:15;97300.06;;;4.27;88.99
51261;BME280;61705;46.228;24.812;2023-03-22T01:41:44;97303.75;;;4.19;89.16
51261;BME280;61705;46.228;24.812;2023-03-22T01:46:38;97305.59;;;4.15;88.28
51261;BME280;61705;46.228;24.812;2023-03-22T01:49:05;97303.25;;;4.04;88.17
51261;BME280;61705;46.228;24.812;2023-03-22T01:51:36;97299.88;;;3.99;88.11
51261;BME280;61705;46.228;24.812;2023-03-22T01:54:04;97301.13;;;3.85;88.25
51261;BME280;61705;46.228;24.812;2023-03-22T01:56:35;97295.00;;;3.87;88.12
51261;BME280;61705;46.228;24.812;2023-03-22T01:59:05;97295.84;;;3.86;87.92
51261;BME280;61705;46.228;24.812;2023-03-22T02:01:35;97290.56;;;3.89;87.66
51261;BME280;61705;46.228;24.812;2023-03-22T02:04:11;97293.22;;;3.88;87.80
51261;BME280;61705;46.228;24.812;2023-03-22T02:06:39;97287.06;;;3.90;87.68
51261;BME280;61705;46.228;24.812;2023-03-22T02:09:08;97290.97;;;3.72;87.90
51261;BME280;61705;46.228;24.812;2023-03-22T02:11:37;97292.19;;;3.59;88.78
51261;BME280;61705;46.228;24.812;2023-03-22T02:22:01;97286.72;;;3.68;89.60
51261;BME280;61705;46.228;24.812;2023-03-22T02:30:01;97283.66;;;3.52;90.88
51261;BME280;61705;46.228;24.812;2023-03-22T02:43:29;97291.09;;;3.30;91.85
51261;BME280;61705;46.228;24.812;2023-03-22T02:46:21;97297.09;;;3.36;91.77
51261;BME280;61705;46.228;24.812;2023-03-22T02:49:03;97300.44;;;3.41;91.12
51261;BME280;61705;46.228;24.812;2023-03-22T02:51:44;97297.91;;;3.38;91.16
51261;BME280;61705;46.228;24.812;2023-03-22T02:54:19;97298.13;;;3.28;91.38
51261;BME280;61705;46.228;24.812;2023-03-22T02:56:59;97302.44;;;3.29;91.37
51261;BME280;61705;46.228;24.812;2023-03-22T02:59:30;97306.81;;;3.29;91.21
51261;BME280;61705;46.228;24.812;2023-03-22T03:02:02;97305.97;;;3.28;91.25
51261;BME280;61705;46.228;24.812;2023-03-22T03:04:37;97308.47;;;3.31;91.38
51261;BME280;61705;46.228;24.812;2023-03-22T03:07:08;97315.47;;;3.31;91.72
51261;BME280;61705;46.228;24.812;2023-03-22T03:09:39;97312.72;;;3.37;91.30
51261;BME280;61705;46.228;24.812;2023-03-22T03:12:17;97309.78;;;3.51;91.22
51261;BME280;61705;46.228;24.812;2023-03-22T03:14:45;97319.31;;;3.53;91.07
51261;BME280;61705;46.228;24.812;2023-03-22T03:20:00;97321.53;;;3.69;89.03
51261;BME280;61705;46.228;24.812;2023-03-22T03:30:42;97326.56;;;3.78;89.50
51261;BME280;61705;46.228;24.812;2023-03-22T03:33:16;97319.56;;;3.80;89.17
51261;BME280;61705;46.228;24.812;2023-03-22T03:35:53;97321.06;;;3.89;89.14
51261;BME280;61705;46.228;24.812;2023-03-22T03:38:26;97319.25;;;3.92;88.89
51261;BME280;61705;46.228;24.812;2023-03-22T03:41:00;97321.00;;;3.92;88.91
51261;BME280;61705;46.228;24.812;2023-03-22T03:43:38;97320.00;;;3.97;89.04
51261;BME280;61705;46.228;24.812;2023-03-22T03:46:06;97332.00;;;4.04;88.89
51261;BME280;61705;46.228;24.812;2023-03-22T03:48:34;97333.78;;;4.02;88.91
51261;BME280;61705;46.228;24.812;2023-03-22T03:51:03;97332.03;;;4.03;88.89
51261;BME280;61705;46.228;24.812;2023-03-22T03:53:32;97336.59;;;3.95;88.85
51261;BME280;61705;46.228;24.812;2023-03-22T03:55:59;97341.91;;;3.92;89.05
51261;BME280;61705;46.228;24.812;2023-03-22T03:58:25;97338.59;;;3.85;89.20
51261;BME280;61705;46.228;24.812;2023-03-22T04:00:52;97335.19;;;3.82;89.23
51261;BME280;61705;46.228;24.812;2023-03-22T04:03:21;97340.53;;;3.77;89.14
51261;BME280;61705;46.228;24.812;2023-03-22T04:05:49;97345.91;;;3.71;89.03
51261;BME280;61705;46.228;24.812;2023-03-22T04:08:16;97347.59;;;3.73;88.80
51261;BME280;61705;46.228;24.812;2023-03-22T04:10:49;97338.06;;;3.71;88.68
51261;BME280;61705;46.228;24.812;2023-03-22T04:13:19;97345.00;;;3.72;88.79
51261;BME280;61705;46.228;24.812;2023-03-22T04:15:54;97351.06;;;3.74;88.75
51261;BME280;61705;46.228;24.812;2023-03-22T04:18:25;97360.84;;;3.64;89.38
51261;BME280;61705;46.228;24.812;2023-03-22T04:21:00;97352.03;;;3.70;89.51
51261;BME280;61705;46.228;24.812;2023-03-22T04:23:28;97363.34;;;3.69;89.77
51261;BME280;61705;46.228;24.812;2023-03-22T04:26:01;97356.50;;;3.65;90.08
51261;BME280;61705;46.228;24.812;2023-03-22T04:28:29;97357.34;;;3.65;90.30
51261;BME280;61705;46.228;24.812;2023-03-22T04:30:59;97368.59;;;3.69;90.15
51261;BME280;61705;46.228;24.812;2023-03-22T04:33:31;97359.81;;;3.71;89.82
51261;BME280;61705;46.228;24.812;2023-03-22T04:36:06;97365.13;;;3.68;89.68
51261;BME280;61705;46.228;24.812;2023-03-22T04:38:37;97358.03;;;3.73;89.98
51261;BME280;61705;46.228;24.812;2023-03-22T04:41:09;97365.75;;;3.78;89.85
51261;BME280;61705;46.228;24.812;2023-03-22T04:43:37;97361.41;;;3.78;89.91
51261;BME280;61705;46.228;24.812;2023-03-22T04:46:08;97372.69;;;3.80;89.60
51261;BME280;61705;46.228;24.812;2023-03-22T04:48:39;97364.06;;;3.75;89.38
51261;BME280;61705;46.228;24.812;2023-03-22T04:51:08;97370.78;;;3.87;89.55
51261;BME280;61705;46.228;24.812;2023-03-22T04:53:35;97367.06;;;3.96;89.21
51261;BME280;61705;46.228;24.812;2023-03-22T04:56:09;97363.53;;;3.98;88.79
51261;BME280;61705;46.228;24.812;2023-03-22T04:58:40;97368.88;;;3.94;88.96
51261;BME280;61705;46.228;24.812;2023-03-22T05:01:11;97370.47;;;3.99;88.85
51261;BME280;61705;46.228;24.812;2023-03-22T05:03:38;97375.69;;;4.01;89.07
51261;BME280;61705;46.228;24.812;2023-03-22T05:06:10;97373.06;;;4.01;89.04
51261;BME280;61705;46.228;24.812;2023-03-22T05:08:37;97372.28;;;3.96;89.19
51261;BME280;61705;46.228;24.812;2023-03-22T05:11:15;97379.28;;;3.97;89.25
51261;BME280;61705;46.228;24.812;2023-03-22T05:13:45;97378.16;;;4.06;89.53
51261;BME280;61705;46.228;24.812;2023-03-22T05:16:12;97385.88;;;4.12;89.21
51261;BME280;61705;46.228;24.812;2023-03-22T05:18:38;97388.19;;;4.24;89.13
51261;BME280;61705;46.228;24.812;2023-03-22T05:21:12;97388.28;;;4.19;89.21
51261;BME280;61705;46.228;24.812;2023-03-22T05:23:41;97391.47;;;4.31;89.35
51261;BME280;61705;46.228;24.812;2023-03-22T05:26:10;97391.13;;;4.44;88.84
51261;BME280;61705;46.228;24.812;2023-03-22T05:28:42;97401.50;;;4.49;88.65
51261;BME280;61705;46.228;24.812;2023-03-22T05:31:09;97403.91;;;4.57;88.42
51261;BME280;61705;46.228;24.812;2023-03-22T05:33:39;97395.81;;;4.66;88.24
51261;BME280;61705;46.228;24.812;2023-03-22T05:36:07;97395.47;;;4.80;88.02
51261;BME280;61705;46.228;24.812;2023-03-22T05:38:37;97398.72;;;4.88;87.71
51261;BME280;61705;46.228;24.812;2023-03-22T05:41:06;97396.72;;;4.97;87.29
51261;BME280;61705;46.228;24.812;2023-03-22T05:43:33;97407.03;;;5.02;87.13
51261;BME280;61705;46.228;24.812;2023-03-22T05:46:04;97416.63;;;5.03;87.08
51261;BME280;61705;46.228;24.812;2023-03-22T05:48:31;97412.25;;;5.04;87.01
51261;BME280;61705;46.228;24.812;2023-03-22T05:50:58;97406.03;;;5.08;86.85
51261;BME280;61705;46.228;24.812;2023-03-22T05:53:27;97416.44;;;5.09;86.48
51261;BME280;61705;46.228;24.812;2023-03-22T05:55:53;97418.09;;;5.13;86.23
51261;BME280;61705;46.228;24.812;2023-03-22T05:58:22;97416.88;;;5.25;86.15
51261;BME280;61705;46.228;24.812;2023-03-22T06:00:50;97420.03;;;5.36;85.93
51261;BME280;61705;46.228;24.812;2023-03-22T06:03:18;97417.22;;;5.44;85.93
51261;BME280;61705;46.228;24.812;2023-03-22T06:05:45;97425.03;;;5.45;85.37
51261;BME280;61705;46.228;24.812;2023-03-22T06:08:16;97423.03;;;5.54;85.35
51261;BME280;61705;46.228;24.812;2023-03-22T06:10:42;97422.81;;;5.61;85.21
51261;BME280;61705;46.228;24.812;2023-03-22T06:13:09;97419.88;;;5.72;84.92
51261;BME280;61705;46.228;24.812;2023-03-22T06:15:39;97423.88;;;5.84;84.56
51261;BME280;61705;46.228;24.812;2023-03-22T06:18:06;97424.47;;;5.93;84.49
51261;BME280;61705;46.228;24.812;2023-03-22T06:20:32;97421.59;;;6.03;84.14
51261;BME280;61705;46.228;24.812;2023-03-22T06:23:02;97425.75;;;6.08;84.15
51261;BME280;61705;46.228;24.812;2023-03-22T06:25:29;97429.78;;;6.20;84.30
51261;BME280;61705;46.228;24.812;2023-03-22T06:27:56;97439.31;;;6.23;84.34
51261;BME280;61705;46.228;24.812;2023-03-22T06:30:25;97444.47;;;6.26;84.49
51261;BME280;61705;46.228;24.812;2023-03-22T06:32:51;97447.72;;;6.32;84.44
51261;BME280;61705;46.228;24.812;2023-03-22T06:35:18;97448.63;;;6.33;84.55
51261;BME280;61705;46.228;24.812;2023-03-22T06:37:45;97453.91;;;6.31;84.85
51261;BME280;61705;46.228;24.812;2023-03-22T06:40:12;97459.13;;;6.33;84.94
51261;BME280;61705;46.228;24.812;2023-03-22T06:42:44;97449.56;;;6.30;85.01
51261;BME280;61705;46.228;24.812;2023-03-22T06:45:13;97455.09;;;6.21;85.25
51261;BME280;61705;46.228;24.812;2023-03-22T06:47:44;97455.84;;;6.25;85.50
51261;BME280;61705;46.228;24.812;2023-03-22T06:50:14;97453.75;;;6.36;85.40
51261;BME280;61705;46.228;24.812;2023-03-22T06:52:41;97464.66;;;6.50;85.36
51261;BME280;61705;46.228;24.812;2023-03-22T06:55:08;97466.94;;;6.61;85.15
51261;BME280;61705;46.228;24.812;2023-03-22T06:57:41;97461.25;;;6.73;84.77
51261;BME280;61705;46.228;24.812;2023-03-22T07:00:10;97469.03;;;6.76;84.65
51261;BME280;61705;46.228;24.812;2023-03-22T07:02:44;97463.56;;;6.84;84.58
51261;BME280;61705;46.228;24.812;2023-03-22T07:05:16;97464.41;;;6.84;84.52
51261;BME280;61705;46.228;24.812;2023-03-22T07:07:47;97461.81;;;6.83;84.15
51261;BME280;61705;46.228;24.812;2023-03-22T07:10:14;97461.91;;;6.80;84.21
51261;BME280;61705;46.228;24.812;2023-03-22T07:12:40;97467.06;;;6.83;84.02
51261;BME280;61705;46.228;24.812;2023-03-22T07:15:07;97471.19;;;6.90;83.88
51261;BME280;61705;46.228;24.812;2023-03-22T07:17:34;97475.66;;;6.88;84.42
51261;BME280;61705;46.228;24.812;2023-03-22T07:20:01;97479.81;;;6.94;84.24
51261;BME280;61705;46.228;24.812;2023-03-22T07:22:31;97475.00;;;7.06;84.18
51261;BME280;61705;46.228;24.812;2023-03-22T07:24:57;97476.72;;;7.07;83.93
51261;BME280;61705;46.228;24.812;2023-03-22T07:27:27;97473.25;;;7.07;83.99
51261;BME280;61705;46.228;24.812;2023-03-22T07:29:53;97479.09;;;7.15;83.88
51261;BME280;61705;46.228;24.812;2023-03-22T07:32:22;97472.88;;;7.18;83.98
51261;BME280;61705;46.228;24.812;2023-03-22T07:34:49;97474.38;;;7.25;83.66
51261;BME280;61705;46.228;24.812;2023-03-22T07:37:16;97474.09;;;7.32;83.46
51261;BME280;61705;46.228;24.812;2023-03-22T07:39:42;97473.16;;;7.35;83.40
51261;BME280;61705;46.228;24.812;2023-03-22T07:42:09;97477.50;;;7.59;82.97
51261;BME280;61705;46.228;24.812;2023-03-22T07:44:35;97481.53;;;7.70;82.63
51261;BME280;61705;46.228;24.812;2023-03-22T07:47:02;97476.63;;;7.82;82.48
51261;BME280;61705;46.228;24.812;2023-03-22T07:49:29;97484.78;;;7.76;82.14
51261;BME280;61705;46.228;24.812;2023-03-22T07:51:56;97480.38;;;7.77;82.29
51261;BME280;61705;46.228;24.812;2023-03-22T07:54:23;97485.03;;;7.69;82.01
51261;BME280;61705;46.228;24.812;2023-03-22T07:56:59;97486.19;;;7.62;82.49
51261;BME280;61705;46.228;24.812;2023-03-22T07:59:26;97486.19;;;7.62;82.78
51261;BME280;61705;46.228;24.812;2023-03-22T08:02:01;97479.00;;;7.67;82.81
51261;BME280;61705;46.228;24.812;2023-03-22T08:04:33;97480.00;;;7.86;82.49
51261;BME280;61705;46.228;24.812;2023-03-22T08:07:01;97482.25;;;7.73;82.45
51261;BME280;61705;46.228;24.812;2023-03-22T08:09:31;97477.78;;;7.75;82.47
51261;BME280;61705;46.228;24.812;2023-03-22T08:11:58;97479.03;;;7.89;82.54
51261;BME280;61705;46.228;24.812;2023-03-22T08:14:24;97479.31;;;8.04;82.02
51261;BME280;61705;46.228;24.812;2023-03-22T08:17:02;97479.03;;;7.89;81.99
51261;BME280;61705;46.228;24.812;2023-03-22T08:19:29;97490.47;;;7.88;82.38
51261;BME280;61705;46.228;24.812;2023-03-22T08:21:57;97478.53;;;7.79;82.77
51261;BME280;61705;46.228;24.812;2023-03-22T08:24:25;97494.56;;;7.73;82.61
51261;BME280;61705;46.228;24.812;2023-03-22T08:26:57;97488.94;;;7.82;82.72
51261;BME280;61705;46.228;24.812;2023-03-22T08:29:23;97494.47;;;7.98;82.43
51261;BME280;61705;46.228;24.812;2023-03-22T08:31:50;97496.41;;;7.93;82.35
51261;BME280;61705;46.228;24.812;2023-03-22T08:34:21;97494.72;;;7.92;82.52
51261;BME280;61705;46.228;24.812;2023-03-22T08:36:47;97496.19;;;7.99;82.75
51261;BME280;61705;46.228;24.812;2023-03-22T08:39:20;97490.72;;;8.27;82.38
51261;BME280;61705;46.228;24.812;2023-03-22T08:41:50;97491.44;;;8.30;81.69
51261;BME280;61705;46.228;24.812;2023-03-22T08:44:20;97490.47;;;8.33;81.80
51261;BME280;61705;46.228;24.812;2023-03-22T08:46:47;97483.34;;;8.59;81.42
51261;BME280;61705;46.228;24.812;2023-03-22T08:49:13;97497.59;;;8.75;80.69
51261;BME280;61705;46.228;24.812;2023-03-22T08:51:43;97490.38;;;8.80;80.32
51261;BME280;61705;46.228;24.812;2023-03-22T08:54:10;97483.34;;;9.01;80.09
51261;BME280;61705;46.228;24.812;2023-03-22T08:56:37;97488.16;;;9.12;79.77
51261;BME280;61705;46.228;24.812;2023-03-22T08:59:04;97491.97;;;9.25;79.60
51261;BME280;61705;46.228;24.812;2023-03-22T09:01:33;97498.22;;;9.43;79.35
51261;BME280;61705;46.228;24.812;2023-03-22T09:03:59;97493.63;;;9.48;78.71
51261;BME280;61705;46.228;24.812;2023-03-22T09:06:26;97493.16;;;9.59;79.05
51261;BME280;61705;46.228;24.812;2023-03-22T09:08:55;97500.09;;;9.80;78.78
51261;BME280;61705;46.228;24.812;2023-03-22T09:11:25;97486.69;;;9.85;78.57
51261;BME280;61705;46.228;24.812;2023-03-22T09:13:54;97500.31;;;9.94;78.24
51261;BME280;61705;46.228;24.812;2023-03-22T09:16:24;97494.44;;;10.27;77.88
51261;BME280;61705;46.228;24.812;2023-03-22T09:18:50;97494.06;;;10.35;77.53
51261;BME280;61705;46.228;24.812;2023-03-22T09:21:17;97485.91;;;10.58;77.26
51261;BME280;61705;46.228;24.812;2023-03-22T09:23:44;97483.22;;;10.77;76.47
51261;BME280;61705;46.228;24.812;2023-03-22T09:26:14;97482.44;;;10.75;75.85
51261;BME280;61705;46.228;24.812;2023-03-22T09:28:48;97483.03;;;10.63;75.28
51261;BME280;61705;46.228;24.812;2023-03-22T09:31:22;97478.22;;;10.71;75.52
51261;BME280;61705;46.228;24.812;2023-03-22T09:33:49;97471.41;;;10.84;75.54
51261;BME280;61705;46.228;24.812;2023-03-22T09:36:16;97471.13;;;11.08;74.92
51261;BME280;61705;46.228;24.812;2023-03-22T09:38:45;97468.22;;;11.12;74.73
51261;BME280;61705;46.228;24.812;2023-03-22T09:41:17;97474.81;;;10.86;75.44
51261;BME280;61705;46.228;24.812;2023-03-22T09:43:50;97468.28;;;10.94;75.29
51261;BME280;61705;46.228;24.812;2023-03-22T09:46:26;97465.19;;;11.20;74.83
51261;BME280;61705;46.228;24.812;2023-03-22T09:48:57;97460.84;;;10.84;75.66
51261;BME280;61705;46.228;24.812;2023-03-22T09:54:01;97462.75;;;11.33;74.16
51261;BME280;61705;46.228;24.812;2023-03-22T09:56:34;97462.66;;;11.34;73.96
51261;BME280;61705;46.228;24.812;2023-03-22T09:59:12;97459.78;;;11.56;73.48
51261;BME280;61705;46.228;24.812;2023-03-22T10:09:51;97465.03;;;12.07;71.33
51261;BME280;61705;46.228;24.812;2023-03-22T10:12:30;97459.97;;;12.18;70.86
51261;BME280;61705;46.228;24.812;2023-03-22T10:15:18;97456.03;;;11.94;70.82
51261;BME280;61705;46.228;24.812;2023-03-22T10:17:55;97452.59;;;11.92;70.19
51261;BME280;61705;46.228;24.812;2023-03-22T10:20:42;97446.19;;;12.43;69.64
51261;BME280;61705;46.228;24.812;2023-03-22T10:23:21;97451.31;;;12.62;67.58
51261;BME280;61705;46.228;24.812;2023-03-22T10:25:54;97439.66;;;12.80;67.24
51261;BME280;61705;46.228;24.812;2023-03-22T10:28:30;97438.13;;;12.61;67.05
51261;BME280;61705;46.228;24.812;2023-03-22T10:31:04;97437.97;;;12.64;66.97
51261;BME280;61705;46.228;24.812;2023-03-22T10:33:54;97431.97;;;12.76;66.10
51261;BME280;61705;46.228;24.812;2023-03-22T10:36:27;97432.38;;;12.68;66.05
51261;BME280;61705;46.228;24.812;2023-03-22T10:39:44;97433.28;;;12.53;65.33
51261;BME280;61705;46.228;24.812;2023-03-22T10:41:53;97423.97;;;12.46;64.03
51261;BME280;61705;46.228;24.812;2023-03-22T10:44:24;97429.03;;;12.35;62.74
51261;BME280;61705;46.228;24.812;2023-03-22T10:46:55;97429.50;;;12.73;62.92
51261;BME280;61705;46.228;24.812;2023-03-22T10:49:31;97422.97;;;12.32;62.44
51261;BME280;61705;46.228;24.812;2023-03-22T10:52:12;97423.63;;;12.52;62.32
51261;BME280;61705;46.228;24.812;2023-03-22T10:54:46;97416.13;;;12.74;62.60
51261;BME280;61705;46.228;24.812;2023-03-22T10:57:13;97415.22;;;12.75;62.58
51261;BME280;61705;46.228;24.812;2023-03-22T10:59:58;97397.84;;;12.70;61.50
51261;BME280;61705;46.228;24.812;2023-03-22T11:02:31;97410.16;;;13.01;59.61
51261;BME280;61705;46.228;24.812;2023-03-22T11:05:01;97404.66;;;13.04;59.81
51261;BME280;61705;46.228;24.812;2023-03-22T11:07:43;97396.34;;;13.10;59.34
51261;BME280;61705;46.228;24.812;2023-03-22T11:10:24;97396.59;;;13.36;58.48
51261;BME280;61705;46.228;24.812;2023-03-22T11:12:54;97388.25;;;13.85;58.73
51261;BME280;61705;46.228;24.812;2023-03-22T11:15:30;97381.13;;;13.85;58.46
51261;BME280;61705;46.228;24.812;2023-03-22T11:17:59;97387.41;;;13.56;58.72
51261;BME280;61705;46.228;24.812;2023-03-22T11:20:35;97388.25;;;13.56;58.82
51261;BME280;61705;46.228;24.812;2023-03-22T11:23:11;97378.41;;;13.44;60.03
51261;BME280;61705;46.228;24.812;2023-03-22T11:25:46;97376.22;;;13.65;60.15
51261;BME280;61705;46.228;24.812;2023-03-22T11:28:19;97376.00;;;13.82;59.94
51261;BME280;61705;46.228;24.812;2023-03-22T11:31:10;97372.56;;;13.80;59.71
51261;BME280;61705;46.228;24.812;2023-03-22T11:34:15;97370.00;;;13.93;59.52
51261;BME280;61705;46.228;24.812;2023-03-22T11:36:32;97370.38;;;14.28;58.47
51261;BME280;61705;46.228;24.812;2023-03-22T11:39:07;97367.94;;;14.52;58.13
51261;BME280;61705;46.228;24.812;2023-03-22T11:41:35;97369.66;;;14.12;58.60
51261;BME280;61705;46.228;24.812;2023-03-22T11:44:15;97363.41;;;13.71;58.61
51261;BME280;61705;46.228;24.812;2023-03-22T11:46:53;97366.59;;;13.77;59.66
51261;BME280;61705;46.228;24.812;2023-03-22T11:49:25;97371.19;;;14.16;58.76
51261;BME280;61705;46.228;24.812;2023-03-22T11:51:54;97368.22;;;14.48;58.55
51261;BME280;61705;46.228;24.812;2023-03-22T11:54:28;97360.97;;;14.77;57.39
51261;BME280;61705;46.228;24.812;2023-03-22T11:57:01;97356.88;;;14.31;58.41
51261;BME280;61705;46.228;24.812;2023-03-22T12:05:04;97357.31;;;14.38;58.45
51261;BME280;61705;46.228;24.812;2023-03-22T12:07:33;97346.97;;;14.20;59.34
51261;BME280;61705;46.228;24.812;2023-03-22T12:10:15;97353.56;;;14.01;59.64
51261;BME280;61705;46.228;24.812;2023-03-22T12:12:59;97346.84;;;14.22;59.05
51261;BME280;61705;46.228;24.812;2023-03-22T12:16:00;97354.88;;;14.08;59.01
51261;BME280;61705;46.228;24.812;2023-03-22T12:18:33;97347.16;;;13.76;59.62
51261;BME280;61705;46.228;24.812;2023-03-22T12:21:08;97355.59;;;13.83;58.72
51261;BME280;61705;46.228;24.812;2023-03-22T12:23:39;97354.53;;;13.99;58.67
51261;BME280;61705;46.228;24.812;2023-03-22T12:26:17;97348.75;;;14.20;58.58
51261;BME280;61705;46.228;24.812;2023-03-22T12:28:53;97336.63;;;13.89;58.12
51261;BME280;61705;46.228;24.812;2023-03-22T12:31:41;97333.66;;;14.20;57.11
51261;BME280;61705;46.228;24.812;2023-03-22T12:34:17;97335.06;;;13.99;57.79
51261;BME280;61705;46.228;24.812;2023-03-22T12:36:55;97328.66;;;13.89;56.88
51261;BME280;61705;46.228;24.812;2023-03-22T12:39:34;97325.00;;;14.04;56.37
51261;BME280;61705;46.228;24.812;2023-03-22T12:42:15;97337.06;;;13.95;55.97
51261;BME280;61705;46.228;24.812;2023-03-22T12:44:44;97325.56;;;14.09;56.39
51261;BME280;61705;46.228;24.812;2023-03-22T12:47:42;97327.69;;;14.44;55.77
51261;BME280;61705;46.228;24.812;2023-03-22T12:50:42;97322.63;;;13.99;54.94
51261;BME280;61705;46.228;24.812;2023-03-22T12:53:14;97320.44;;;14.33;55.34
51261;BME280;61705;46.228;24.812;2023-03-22T12:55:46;97320.19;;;13.96;55.90
51261;BME280;61705;46.228;24.812;2023-03-22T12:58:28;97313.88;;;13.70;56.19
51261;BME280;61705;46.228;24.812;2023-03-22T13:00:59;97315.03;;;13.66;56.51
51261;BME280;61705;46.228;24.812;2023-03-22T13:03:46;97314.94;;;14.22;54.60
51261;BME280;61705;46.228;24.812;2023-03-22T13:06:56;97317.00;;;14.04;55.36
51261;BME280;61705;46.228;24.812;2023-03-22T13:09:50;97301.81;;;14.46;54.53
51261;BME280;61705;46.228;24.812;2023-03-22T13:30:23;97291.19;;;14.99;51.67
51261;BME280;61705;46.228;24.812;2023-03-22T13:32:54;97296.31;;;15.02;52.34
51261;BME280;61705;46.228;24.812;2023-03-22T13:35:34;97283.63;;;15.18;51.25
51261;BME280;61705;46.228;24.812;2023-03-22T13:38:08;97286.72;;;14.86;51.74
51261;BME280;61705;46.228;24.812;2023-03-22T13:40:46;97280.75;;;14.83;51.04
51261;BME280;61705;46.228;24.812;2023-03-22T13:51:30;97280.75;;;14.83;50.81
51261;BME280;61705;46.228;24.812;2023-03-22T13:54:08;97283.75;;;14.38;51.41
51261;BME280;61705;46.228;24.812;2023-03-22T13:56:52;97276.16;;;14.32;51.56
51261;BME280;61705;46.228;24.812;2023-03-22T14:02:03;97284.91;;;14.34;51.90
51261;BME280;61705;46.228;24.812;2023-03-22T14:10:23;97290.38;;;14.06;52.69
51261;BME280;61705;46.228;24.812;2023-03-22T14:12:55;97283.06;;;14.22;52.41
51261;BME280;61705;46.228;24.812;2023-03-22T14:15:32;97283.72;;;14.26;52.73
51261;BME280;61705;46.228;24.812;2023-03-22T14:18:28;97284.88;;;14.21;52.79
51261;BME280;61705;46.228;24.812;2023-03-22T14:21:30;97278.63;;;14.22;52.40
51261;BME280;61705;46.228;24.812;2023-03-22T14:24:01;97284.59;;;14.26;52.92
51261;BME280;61705;46.228;24.812;2023-03-22T14:26:40;97281.06;;;14.26;52.87
51261;BME280;61705;46.228;24.812;2023-03-22T14:29:14;97277.41;;;14.14;52.98
51261;BME280;61705;46.228;24.812;2023-03-22T14:31:59;97287.75;;;13.91;53.33
51261;BME280;61705;46.228;24.812;2023-03-22T14:34:30;97294.84;;;13.91;53.96
51261;BME280;61705;46.228;24.812;2023-03-22T14:37:05;97285.00;;;13.93;54.09
51261;BME280;61705;46.228;24.812;2023-03-22T14:39:44;97274.38;;;13.93;53.95
51261;BME280;61705;46.228;24.812;2023-03-22T14:42:22;97274.91;;;13.98;54.05
51261;BME280;61705;46.228;24.812;2023-03-22T14:44:52;97282.19;;;14.09;53.97
51261;BME280;61705;46.228;24.812;2023-03-22T14:49:53;97292.56;;;14.26;53.81
51261;BME280;61705;46.228;24.812;2023-03-22T14:52:21;97289.88;;;14.53;53.66